createdAt,value
2022-09-12T00:00:27.454Z,12.17
2022-09-12T00:01:30.005Z,12.14
2022-09-12T00:02:33.172Z,12.14
2022-09-12T00:03:35.662Z,12.13
2022-09-12T00:04:38.645Z,12.04
2022-09-12T00:05:44.388Z,12.11
2022-09-12T00:06:47.288Z,12.10
2022-09-12T00:07:50.640Z,12.10
2022-09-12T00:08:56.818Z,12.08
2022-09-12T00:09:58.800Z,12.08
2022-09-12T00:11:07.228Z,12.07
2022-09-12T00:12:10.343Z,12.04
2022-09-12T00:13:12.257Z,12.04
2022-09-12T00:14:18.256Z,12.04
2022-09-12T00:15:20.360Z,12.02
2022-09-12T00:16:25.487Z,12.02
2022-09-12T00:17:27.530Z,12.01
2022-09-12T00:18:30.512Z,12.01
2022-09-12T00:19:32.407Z,12.01
2022-09-12T00:20:35.305Z,11.99
2022-09-12T00:21:39.059Z,11.99
2022-09-12T00:22:42.162Z,11.99
2022-09-12T00:23:46.241Z,11.98
2022-09-12T00:24:49.175Z,11.98
2022-09-12T00:25:51.080Z,11.97
2022-09-12T00:26:54.164Z,11.96
2022-09-12T00:27:56.177Z,11.95
2022-09-12T00:28:59.326Z,11.94
2022-09-12T00:30:01.229Z,11.94
2022-09-12T00:31:06.936Z,11.91
2022-09-12T00:32:08.875Z,11.92
2022-09-12T00:33:12.269Z,11.91
2022-09-12T00:34:14.739Z,11.85
2022-09-12T00:35:17.777Z,11.88
2022-09-12T00:36:21.812Z,11.89
2022-09-12T00:37:24.692Z,11.87
2022-09-12T00:38:26.793Z,11.87
2022-09-12T00:39:31.060Z,11.86
2022-09-12T00:40:33.069Z,11.84
2022-09-12T00:41:38.626Z,11.85
2022-09-12T00:42:40.546Z,11.83
2022-09-12T00:43:45.639Z,11.82
2022-09-12T00:44:51.435Z,11.80
2022-09-12T00:45:54.783Z,11.79
2022-09-12T00:47:00.938Z,11.79
2022-09-12T00:48:05.318Z,11.79
2022-09-12T00:49:14.370Z,11.77
2022-09-12T00:50:18.041Z,11.77
2022-09-12T00:51:20.734Z,11.76
2022-09-12T00:52:28.348Z,11.76
2022-09-12T00:53:30.905Z,11.74
2022-09-12T00:54:39.569Z,11.73
2022-09-12T00:55:45.558Z,11.72
2022-09-12T00:56:51.442Z,11.72
2022-09-12T00:57:57.563Z,11.71
2022-09-12T00:59:06.192Z,11.70
2022-09-12T01:00:13.708Z,11.68
2022-09-12T01:01:16.790Z,11.66
2022-09-12T01:02:18.893Z,11.69
2022-09-12T01:03:24.259Z,11.68
2022-09-12T01:04:28.253Z,11.68
2022-09-12T01:05:35.267Z,11.68
2022-09-12T01:06:42.073Z,11.67
2022-09-12T01:07:48.506Z,11.66
2022-09-12T01:08:53.746Z,11.66
2022-09-12T01:09:57.192Z,11.65
2022-09-12T01:11:00.117Z,11.66
2022-09-12T01:12:02.792Z,11.65
2022-09-12T01:13:07.165Z,11.65
2022-09-12T01:14:09.517Z,11.64
2022-09-12T01:15:13.010Z,11.63
2022-09-12T01:16:15.616Z,11.62
2022-09-12T01:17:18.499Z,11.62
2022-09-12T01:18:26.823Z,11.61
2022-09-12T01:20:35.609Z,11.59
2022-09-12T01:21:44.294Z,11.58
2022-09-12T01:23:07.488Z,11.59
2022-09-12T01:24:38.918Z,11.58
2022-09-12T01:25:58.739Z,11.59
2022-09-12T01:27:17.698Z,11.57
2022-09-12T01:28:38.182Z,11.56
2022-09-12T01:30:06.248Z,11.54
2022-09-12T01:31:15.720Z,11.54
2022-09-12T01:32:27.058Z,11.52
2022-09-12T01:33:37.885Z,11.51
2022-09-12T01:34:50.171Z,11.50
2022-09-12T01:36:06.718Z,11.49
2022-09-12T01:37:15.683Z,11.48
2022-09-12T01:38:26.080Z,11.48
2022-09-12T01:39:37.822Z,11.46
2022-09-12T01:40:46.313Z,11.46
2022-09-12T01:41:55.925Z,11.45
2022-09-12T01:43:05.291Z,11.44
2022-09-12T01:44:21.503Z,11.39
2022-09-12T01:45:30.132Z,11.40
2022-09-12T01:46:41.359Z,11.43
2022-09-12T01:47:51.050Z,11.42
2022-09-12T01:48:59.601Z,11.40
2022-09-12T01:50:07.276Z,11.40
2022-09-12T01:51:14.807Z,11.38
2022-09-12T01:52:23.744Z,11.37
2022-09-12T01:53:30.101Z,11.38
2022-09-12T01:54:39.937Z,11.38
2022-09-12T01:55:46.424Z,11.36
2022-09-12T01:56:54.190Z,11.36
2022-09-12T01:58:04.162Z,11.35
2022-09-12T01:59:13.608Z,11.32
2022-09-12T02:00:16.769Z,11.32
2022-09-12T02:01:23.252Z,11.31
2022-09-12T02:02:34.923Z,11.31
2022-09-12T02:03:44.727Z,11.30
2022-09-12T02:04:52.764Z,11.30
2022-09-12T02:05:59.916Z,11.28
2022-09-12T02:07:09.053Z,11.27
2022-09-12T02:08:14.918Z,11.27
2022-09-12T02:09:22.811Z,11.26
2022-09-12T02:10:32.514Z,11.25
2022-09-12T02:11:38.381Z,11.23
2022-09-12T02:12:44.793Z,11.24
2022-09-12T02:13:55.167Z,11.23
2022-09-12T02:15:02.510Z,11.21
2022-09-12T02:16:09.919Z,11.22
2022-09-12T02:17:14.903Z,11.21
2022-09-12T02:18:21.155Z,11.20
2022-09-12T02:19:28.223Z,11.20
2022-09-12T02:20:47.982Z,11.18
2022-09-12T02:21:54.068Z,11.18
2022-09-12T02:22:59.079Z,11.17
2022-09-12T02:24:04.952Z,11.16
2022-09-12T02:25:11.615Z,11.17
2022-09-12T02:26:24.861Z,11.16
2022-09-12T02:27:34.691Z,11.16
2022-09-12T02:28:42.256Z,11.16
2022-09-12T02:29:46.134Z,11.16
2022-09-12T02:30:56.505Z,11.16
2022-09-12T02:32:01.845Z,11.17
2022-09-12T02:33:07.558Z,11.15
2022-09-12T02:34:27.909Z,11.16
2022-09-12T02:35:39.258Z,11.16
2022-09-12T02:36:51.087Z,11.13
2022-09-12T02:38:00.110Z,11.12
2022-09-12T02:39:03.175Z,11.15
2022-09-12T02:40:07.087Z,11.14
2022-09-12T02:41:10.263Z,11.15
2022-09-12T02:42:12.601Z,11.14
2022-09-12T02:43:15.667Z,11.16
2022-09-12T02:44:18.037Z,11.15
2022-09-12T02:45:22.808Z,11.15
2022-09-12T02:46:31.449Z,11.16
2022-09-12T02:47:39.897Z,11.16
2022-09-12T02:48:43.838Z,11.15
2022-09-12T02:49:48.508Z,11.15
2022-09-12T02:50:50.584Z,11.13
2022-09-12T02:51:53.548Z,11.13
2022-09-12T02:52:59.789Z,11.13
2022-09-12T02:54:03.558Z,11.12
2022-09-12T02:55:06.684Z,11.11
2022-09-12T02:56:13.675Z,11.10
2022-09-12T02:57:20.618Z,11.10
2022-09-12T02:58:28.600Z,11.08
2022-09-12T02:59:31.537Z,11.08
2022-09-12T03:00:37.844Z,11.06
2022-09-12T03:01:57.830Z,11.06
2022-09-12T03:03:19.591Z,11.05
2022-09-12T03:04:45.797Z,11.06
2022-09-12T03:05:57.533Z,11.06
2022-09-12T03:07:09.988Z,11.06
2022-09-12T03:08:39.476Z,11.02
2022-09-12T03:09:47.340Z,11.05
2022-09-12T03:11:22.789Z,11.03
2022-09-12T03:12:39.617Z,11.02
2022-09-12T03:13:52.909Z,11.02
2022-09-12T03:15:08.645Z,11.01
2022-09-12T03:16:20.668Z,10.99
2022-09-12T03:17:31.303Z,11.00
2022-09-12T03:18:48.493Z,11.00
2022-09-12T03:19:57.006Z,10.98
2022-09-12T03:21:07.285Z,10.98
2022-09-12T03:22:15.825Z,10.91
2022-09-12T03:23:28.236Z,10.95
2022-09-12T03:24:35.445Z,10.94
2022-09-12T03:25:43.163Z,10.93
2022-09-12T03:26:50.644Z,10.93
2022-09-12T03:27:59.666Z,10.92
2022-09-12T03:29:03.539Z,10.89
2022-09-12T03:30:07.420Z,10.89
2022-09-12T03:31:14.475Z,10.89
2022-09-12T03:32:17.408Z,10.87
2022-09-12T03:33:20.885Z,10.86
2022-09-12T03:34:26.042Z,10.84
2022-09-12T03:35:27.979Z,10.85
2022-09-12T03:36:32.373Z,10.82
2022-09-12T03:37:34.368Z,10.83
2022-09-12T03:38:37.309Z,10.82
2022-09-12T03:39:39.442Z,10.80
2022-09-12T03:40:42.545Z,10.80
2022-09-12T03:41:44.731Z,10.78
2022-09-12T03:42:47.594Z,10.74
2022-09-12T03:43:49.549Z,10.78
2022-09-12T03:44:52.568Z,10.77
2022-09-12T03:45:54.590Z,10.78
2022-09-12T03:46:57.586Z,10.75
2022-09-12T03:48:00.030Z,10.75
2022-09-12T03:49:03.022Z,10.74
2022-09-12T03:50:06.455Z,10.74
2022-09-12T03:51:11.463Z,10.72
2022-09-12T03:52:14.720Z,10.71
2022-09-12T03:53:17.701Z,10.70
2022-09-12T03:54:19.712Z,10.70
2022-09-12T03:55:22.962Z,10.67
2022-09-12T03:56:24.935Z,10.65
2022-09-12T03:57:27.869Z,10.67
2022-09-12T03:58:31.357Z,10.67
2022-09-12T03:59:34.397Z,10.66
2022-09-12T04:00:36.333Z,10.67
2022-09-12T04:01:39.333Z,10.66
2022-09-12T04:02:41.235Z,10.66
2022-09-12T04:03:45.091Z,10.66
2022-09-12T04:04:48.884Z,10.65
2022-09-12T04:05:51.890Z,10.65
2022-09-12T04:06:53.802Z,10.64
2022-09-12T04:07:58.111Z,10.62
2022-09-12T04:09:00.134Z,10.63
2022-09-12T04:10:03.991Z,10.63
2022-09-12T04:11:07.736Z,10.62
2022-09-12T04:12:10.634Z,10.63
2022-09-12T04:13:12.559Z,10.61
2022-09-12T04:14:15.475Z,10.59
2022-09-12T04:15:17.434Z,10.60
2022-09-12T04:16:20.497Z,10.61
2022-09-12T04:17:22.456Z,10.60
2022-09-12T04:18:25.423Z,10.60
2022-09-12T04:19:27.684Z,10.59
2022-09-12T04:20:30.590Z,10.58
2022-09-12T04:21:32.811Z,10.58
2022-09-12T04:22:35.716Z,10.58
2022-09-12T04:23:39.116Z,10.58
2022-09-12T04:24:42.041Z,10.57
2022-09-12T04:25:44.003Z,10.57
2022-09-12T04:26:46.903Z,10.55
2022-09-12T04:27:48.894Z,10.56
2022-09-12T04:28:56.201Z,10.56
2022-09-12T04:29:59.543Z,10.54
2022-09-12T04:31:03.866Z,10.56
2022-09-12T04:32:06.217Z,10.57
2022-09-12T04:33:09.165Z,10.58
2022-09-12T04:34:11.309Z,10.59
2022-09-12T04:35:14.214Z,10.59
2022-09-12T04:36:17.660Z,10.59
2022-09-12T04:37:21.178Z,10.59
2022-09-12T04:38:23.208Z,10.60
2022-09-12T04:39:27.846Z,10.60
2022-09-12T04:40:29.950Z,10.61
2022-09-12T04:41:35.008Z,10.62
2022-09-12T04:42:36.961Z,10.62
2022-09-12T04:43:39.926Z,10.63
2022-09-12T04:44:41.903Z,10.62
2022-09-12T04:45:44.911Z,10.62
2022-09-12T04:46:48.582Z,10.64
2022-09-12T04:47:51.520Z,10.64
2022-09-12T04:48:56.897Z,10.63
2022-09-12T04:50:00.163Z,10.64
2022-09-12T04:51:10.773Z,10.64
2022-09-12T04:52:13.769Z,10.64
2022-09-12T04:53:15.707Z,10.63
2022-09-12T04:54:20.649Z,10.62
2022-09-12T04:55:26.390Z,10.62
2022-09-12T04:56:30.647Z,10.62
2022-09-12T04:57:33.825Z,10.62
2022-09-12T04:58:36.536Z,10.61
2022-09-12T04:59:39.801Z,10.61
2022-09-12T05:00:41.969Z,10.62
2022-09-12T05:01:45.539Z,10.61
2022-09-12T05:02:47.465Z,10.62
2022-09-12T05:03:51.585Z,10.62
2022-09-12T05:04:54.490Z,10.62
2022-09-12T05:05:57.532Z,10.62
2022-09-12T05:07:00.459Z,10.59
2022-09-12T05:08:02.695Z,10.63
2022-09-12T05:09:07.265Z,10.64
2022-09-12T05:10:10.376Z,10.64
2022-09-12T05:11:16.715Z,10.65
2022-09-12T05:12:19.695Z,10.64
2022-09-12T05:13:22.135Z,10.66
2022-09-12T05:14:25.083Z,10.66
2022-09-12T05:15:26.971Z,10.62
2022-09-12T05:16:31.285Z,10.68
2022-09-12T05:17:33.324Z,10.68
2022-09-12T05:18:37.436Z,10.66
2022-09-12T05:19:39.426Z,10.72
2022-09-12T05:20:42.363Z,10.69
2022-09-12T05:21:44.414Z,10.76
2022-09-12T05:22:47.323Z,10.77
2022-09-12T05:23:51.992Z,10.79
2022-09-12T05:24:55.008Z,10.79
2022-09-12T05:25:58.686Z,10.81
2022-09-12T05:27:03.455Z,10.83
2022-09-12T05:28:05.442Z,10.85
2022-09-12T05:29:08.376Z,10.86
2022-09-12T05:30:11.820Z,10.88
2022-09-12T05:31:23.045Z,10.89
2022-09-12T05:32:31.751Z,10.92
2022-09-12T05:33:36.311Z,10.93
2022-09-12T05:34:38.877Z,10.95
2022-09-12T05:35:42.613Z,10.97
2022-09-12T05:36:45.566Z,10.99
2022-09-12T05:37:48.488Z,11.00
2022-09-12T05:38:50.705Z,11.02
2022-09-12T05:39:53.644Z,11.03
2022-09-12T05:41:03.574Z,11.04
2022-09-12T05:42:09.246Z,11.06
2022-09-12T05:43:12.426Z,11.07
2022-09-12T05:44:16.132Z,11.08
2022-09-12T05:45:18.091Z,11.10
2022-09-12T05:46:22.897Z,11.12
2022-09-12T05:47:24.866Z,11.13
2022-09-12T05:48:28.529Z,11.14
2022-09-12T05:49:31.563Z,11.16
2022-09-12T05:50:33.540Z,11.15
2022-09-12T05:51:38.396Z,11.20
2022-09-12T05:52:40.707Z,11.19
2022-09-12T05:53:43.696Z,11.23
2022-09-12T05:54:47.531Z,11.25
2022-09-12T05:55:50.056Z,11.27
2022-09-12T05:56:53.004Z,11.29
2022-09-12T05:57:56.361Z,11.32
2022-09-12T05:59:01.870Z,11.34
2022-09-12T06:00:05.477Z,11.36
2022-09-12T06:01:16.988Z,11.40
2022-09-12T06:02:19.977Z,11.43
2022-09-12T06:03:22.024Z,11.45
2022-09-12T06:04:25.389Z,11.47
2022-09-12T06:05:27.407Z,11.51
2022-09-12T06:06:31.601Z,11.52
2022-09-12T06:07:33.529Z,11.56
2022-09-12T06:08:37.481Z,11.58
2022-09-12T06:09:40.452Z,11.62
2022-09-12T06:10:43.417Z,11.65
2022-09-12T06:11:47.424Z,11.68
2022-09-12T06:12:50.336Z,11.72
2022-09-12T06:13:53.795Z,11.75
2022-09-12T06:14:57.009Z,11.78
2022-09-12T06:16:04.011Z,11.82
2022-09-12T06:17:06.916Z,11.85
2022-09-12T06:18:08.837Z,11.85
2022-09-12T06:19:16.300Z,11.93
2022-09-12T06:20:20.630Z,11.97
2022-09-12T06:21:24.330Z,12.02
2022-09-12T06:22:26.243Z,12.06
2022-09-12T06:23:29.403Z,12.10
2022-09-12T06:24:32.603Z,12.15
2022-09-12T06:25:34.587Z,12.19
2022-09-12T06:26:37.832Z,12.25
2022-09-12T06:27:40.772Z,12.28
2022-09-12T06:28:44.941Z,12.33
2022-09-12T06:29:49.226Z,12.39
2022-09-12T06:30:51.410Z,12.43
2022-09-12T06:31:54.292Z,12.48
2022-09-12T06:32:56.893Z,12.54
2022-09-12T06:34:01.878Z,12.59
2022-09-12T06:35:05.514Z,12.64
2022-09-12T06:36:12.519Z,12.70
2022-09-12T06:37:15.805Z,12.75
2022-09-12T06:38:18.452Z,12.81
2022-09-12T06:39:22.751Z,12.85
2022-09-12T06:40:24.895Z,12.91
2022-09-12T06:41:28.994Z,12.97
2022-09-12T06:42:30.916Z,13.03
2022-09-12T06:43:34.601Z,13.09
2022-09-12T06:44:37.381Z,13.14
2022-09-12T06:45:50.309Z,13.20
2022-09-12T06:46:54.127Z,13.27
2022-09-12T06:47:56.734Z,13.32
2022-09-12T06:49:00.796Z,13.37
2022-09-12T06:50:02.773Z,13.44
2022-09-12T06:51:07.532Z,13.50
2022-09-12T06:52:10.614Z,13.56
2022-09-12T06:53:12.582Z,13.63
2022-09-12T06:54:17.426Z,13.68
2022-09-12T06:55:21.717Z,13.76
2022-09-12T06:56:28.876Z,13.79
2022-09-12T06:57:31.542Z,13.87
2022-09-12T06:58:35.376Z,13.94
2022-09-12T06:59:38.433Z,14.00
2022-09-12T07:00:41.783Z,14.04
2022-09-12T07:01:44.741Z,14.10
2022-09-12T07:02:46.739Z,14.14
2022-09-12T07:03:51.082Z,14.20
2022-09-12T07:04:53.063Z,14.24
2022-09-12T07:05:56.001Z,14.30
2022-09-12T07:06:58.925Z,14.35
2022-09-12T07:08:00.902Z,14.39
2022-09-12T07:09:06.782Z,14.43
2022-09-12T07:10:11.808Z,14.50
2022-09-12T07:11:17.756Z,14.56
2022-09-12T07:12:19.770Z,14.60
2022-09-12T07:13:22.693Z,14.66
2022-09-12T07:14:26.045Z,14.72
2022-09-12T07:15:28.934Z,14.76
2022-09-12T07:16:32.666Z,14.79
2022-09-12T07:17:35.612Z,14.84
2022-09-12T07:18:38.570Z,14.89
2022-09-12T07:19:41.772Z,14.94
2022-09-12T07:20:44.068Z,15.00
2022-09-12T07:21:47.048Z,15.04
2022-09-12T07:22:49.022Z,15.09
2022-09-12T07:23:55.267Z,15.13
2022-09-12T07:24:57.721Z,15.19
2022-09-12T07:26:02.065Z,15.23
2022-09-12T07:27:05.134Z,15.27
2022-09-12T07:28:07.045Z,15.34
2022-09-12T07:30:39.394Z,15.44
2022-09-12T07:31:43.633Z,15.46
2022-09-12T07:32:46.532Z,15.52
2022-09-12T07:33:54.354Z,15.58
2022-09-12T07:34:57.797Z,15.63
2022-09-12T07:36:01.632Z,15.68
2022-09-12T07:37:04.711Z,15.72
2022-09-12T07:38:06.796Z,15.77
2022-09-12T07:39:09.724Z,15.82
2022-09-12T07:40:11.737Z,15.86
2022-09-12T07:41:15.792Z,15.92
2022-09-12T07:42:18.684Z,15.97
2022-09-12T07:43:20.702Z,16.01
2022-09-12T07:44:23.640Z,16.07
2022-09-12T07:45:26.849Z,16.11
2022-09-12T07:46:29.881Z,16.15
2022-09-12T07:47:34.110Z,16.21
2022-09-12T07:48:36.288Z,16.25
2022-09-12T07:49:39.207Z,16.29
2022-09-12T07:50:45.046Z,16.33
2022-09-12T07:51:48.205Z,16.38
2022-09-12T07:52:50.517Z,16.43
2022-09-12T07:53:53.739Z,16.47
2022-09-12T07:54:55.655Z,16.52
2022-09-12T07:55:58.913Z,16.58
2022-09-12T07:57:00.864Z,16.61
2022-09-12T07:58:03.866Z,16.66
2022-09-12T07:59:05.813Z,16.71
2022-09-12T08:00:10.917Z,16.75
2022-09-12T08:01:19.040Z,16.81
2022-09-12T08:02:21.085Z,16.86
2022-09-12T08:03:25.388Z,16.91
2022-09-12T08:04:27.300Z,16.95
2022-09-12T08:05:30.996Z,17.00
2022-09-12T08:06:36.087Z,17.05
2022-09-12T08:07:39.140Z,17.09
2022-09-12T08:08:41.462Z,17.13
2022-09-12T08:09:44.362Z,17.18
2022-09-12T08:10:47.369Z,17.22
2022-09-12T08:11:50.268Z,17.26
2022-09-12T08:12:52.246Z,17.33
2022-09-12T08:13:57.190Z,17.36
2022-09-12T08:15:00.523Z,17.43
2022-09-12T08:16:04.366Z,17.51
2022-09-12T08:17:07.453Z,17.56
2022-09-12T08:18:09.396Z,17.58
2022-09-12T08:19:13.652Z,17.65
2022-09-12T08:20:15.657Z,17.71
2022-09-12T08:21:22.935Z,17.74
2022-09-12T08:22:26.163Z,17.78
2022-09-12T08:23:29.342Z,17.84
2022-09-12T08:24:32.430Z,17.88
2022-09-12T08:25:34.901Z,17.91
2022-09-12T08:26:37.814Z,17.97
2022-09-12T08:27:40.821Z,18.03
2022-09-12T08:28:45.732Z,18.06
2022-09-12T08:29:48.653Z,18.10
2022-09-12T08:30:50.688Z,18.12
2022-09-12T08:31:57.107Z,18.18
2022-09-12T08:32:59.531Z,18.20
2022-09-12T08:34:02.430Z,18.23
2022-09-12T08:35:08.044Z,18.26
2022-09-12T08:36:11.946Z,18.29
2022-09-12T08:37:15.184Z,18.33
2022-09-12T08:38:17.136Z,18.38
2022-09-12T08:39:20.045Z,18.39
2022-09-12T08:40:21.997Z,18.41
2022-09-12T08:41:30.259Z,18.40
2022-09-12T08:42:53.178Z,18.39
2022-09-12T08:44:26.096Z,18.46
2022-09-12T08:45:35.555Z,18.50
2022-09-12T08:46:48.144Z,18.57
2022-09-12T08:47:52.105Z,18.63
2022-09-12T08:48:55.785Z,18.66
2022-09-12T08:50:13.271Z,18.74
2022-09-12T08:51:18.508Z,18.81
2022-09-12T08:52:28.893Z,18.87
2022-09-12T08:53:37.121Z,18.91
2022-09-12T08:54:39.754Z,18.98
2022-09-12T08:55:45.564Z,19.00
2022-09-12T08:56:48.495Z,19.07
2022-09-12T08:57:51.964Z,19.12
2022-09-12T08:58:54.857Z,19.15
2022-09-12T08:59:57.054Z,19.18
2022-09-12T09:01:08.424Z,19.18
2022-09-12T09:02:34.642Z,19.22
2022-09-12T09:04:01.839Z,19.23
2022-09-12T09:05:13.577Z,19.27
2022-09-12T09:06:27.806Z,19.29
2022-09-12T09:07:52.344Z,19.31
2022-09-12T09:09:04.921Z,19.34
2022-09-12T09:10:23.347Z,19.35
2022-09-12T09:11:44.062Z,19.37
2022-09-12T09:12:57.317Z,19.40
2022-09-12T09:14:32.860Z,19.43
2022-09-12T09:15:44.958Z,19.48
2022-09-12T09:16:49.849Z,19.51
2022-09-12T09:17:56.282Z,19.54
2022-09-12T09:19:02.486Z,19.58
2022-09-12T09:20:16.262Z,19.62
2022-09-12T09:21:24.794Z,19.65
2022-09-12T09:22:38.215Z,19.70
2022-09-12T09:23:45.217Z,19.76
2022-09-12T09:24:53.295Z,19.80
2022-09-12T09:26:01.738Z,19.85
2022-09-12T09:27:23.627Z,19.84
2022-09-12T09:28:37.641Z,19.95
2022-09-12T09:29:45.407Z,19.99
2022-09-12T09:30:48.459Z,20.03
2022-09-12T09:31:54.355Z,20.07
2022-09-12T09:32:59.209Z,20.11
2022-09-12T09:34:01.300Z,20.14
2022-09-12T09:35:13.177Z,20.17
2022-09-12T09:36:22.413Z,20.21
2022-09-12T09:37:32.551Z,20.25
2022-09-12T09:38:47.392Z,20.29
2022-09-12T09:39:59.408Z,20.32
2022-09-12T09:41:12.970Z,20.37
2022-09-12T09:42:30.755Z,20.39
2022-09-12T09:43:33.679Z,20.39
2022-09-12T09:44:36.380Z,20.39
2022-09-12T09:45:43.428Z,20.38
2022-09-12T09:46:51.284Z,20.40
2022-09-12T09:47:58.840Z,20.40
2022-09-12T09:49:04.144Z,20.38
2022-09-12T09:50:07.002Z,20.37
2022-09-12T09:51:10.441Z,20.35
2022-09-12T09:52:17.194Z,20.35
2022-09-12T09:53:28.493Z,20.35
2022-09-12T09:54:37.613Z,20.35
2022-09-12T09:55:43.131Z,20.36
2022-09-12T09:56:46.932Z,20.38
2022-09-12T09:57:49.938Z,20.41
2022-09-12T09:58:53.092Z,20.40
2022-09-12T09:59:55.069Z,20.41
2022-09-12T10:01:00.974Z,20.42
2022-09-12T10:02:24.030Z,20.43
2022-09-12T10:03:30.984Z,20.46
2022-09-12T10:04:41.210Z,20.49
2022-09-12T10:05:49.575Z,20.52
2022-09-12T10:06:54.379Z,20.55
2022-09-12T10:07:58.448Z,20.58
2022-09-12T10:09:19.734Z,20.64
2022-09-12T10:10:22.842Z,20.69
2022-09-12T10:11:30.267Z,20.74
2022-09-12T10:12:32.288Z,20.80
2022-09-12T10:13:40.555Z,20.83
2022-09-12T10:14:43.505Z,20.88
2022-09-12T10:15:57.744Z,20.92
2022-09-12T10:17:00.739Z,20.96
2022-09-12T10:18:04.764Z,20.98
2022-09-12T10:19:22.556Z,21.00
2022-09-12T10:20:33.640Z,21.03
2022-09-12T10:21:41.322Z,21.05
2022-09-12T10:22:47.885Z,21.08
2022-09-12T10:24:01.087Z,21.13
2022-09-12T10:25:11.418Z,21.18
2022-09-12T10:26:17.357Z,21.23
2022-09-12T10:27:23.189Z,21.26
2022-09-12T10:28:32.349Z,21.28
2022-09-12T10:29:45.463Z,21.31
2022-09-12T10:30:52.528Z,21.34
2022-09-12T10:31:58.763Z,21.38
2022-09-12T10:33:08.303Z,21.40
2022-09-12T10:34:22.960Z,21.44
2022-09-12T10:35:31.017Z,21.46
2022-09-12T10:36:38.510Z,21.48
2022-09-12T10:37:41.989Z,21.52
2022-09-12T10:38:49.984Z,21.55
2022-09-12T10:39:57.034Z,21.59
2022-09-12T10:41:01.365Z,21.61
2022-09-12T10:42:05.810Z,21.63
2022-09-12T10:43:17.536Z,21.66
2022-09-12T10:44:27.306Z,21.69
2022-09-12T10:45:33.063Z,21.73
2022-09-12T10:46:35.977Z,21.65
2022-09-12T10:47:38.242Z,21.78
2022-09-12T10:48:41.569Z,21.80
2022-09-12T10:49:44.121Z,21.80
2022-09-12T10:50:47.127Z,21.78
2022-09-12T10:51:49.635Z,21.75
2022-09-12T10:52:52.660Z,21.76
2022-09-12T10:53:56.584Z,21.75
2022-09-12T10:55:01.462Z,21.75
2022-09-12T10:56:07.919Z,21.75
2022-09-12T10:57:35.953Z,21.77
2022-09-12T10:59:05.536Z,21.76
2022-09-12T11:00:15.029Z,21.74
2022-09-12T11:01:28.359Z,21.72
2022-09-12T11:02:37.949Z,21.71
2022-09-12T11:04:05.376Z,21.72
2022-09-12T11:05:18.384Z,21.71
2022-09-12T11:06:34.026Z,21.72
2022-09-12T11:07:43.476Z,21.73
2022-09-12T11:08:55.596Z,21.73
2022-09-12T11:10:11.680Z,21.72
2022-09-12T11:11:40.973Z,21.71
2022-09-12T11:12:51.396Z,21.72
2022-09-12T11:14:11.842Z,21.75
2022-09-12T11:15:33.394Z,21.76
2022-09-12T11:16:43.849Z,21.80
2022-09-12T11:17:51.972Z,21.84
2022-09-12T11:19:10.474Z,21.87
2022-09-12T11:20:48.304Z,21.91
2022-09-12T11:22:06.385Z,21.93
2022-09-12T11:23:36.330Z,21.94
2022-09-12T11:24:51.999Z,21.96
2022-09-12T11:26:04.265Z,21.96
2022-09-12T11:27:19.968Z,21.96
2022-09-12T11:28:34.419Z,21.96
2022-09-12T11:29:50.003Z,21.96
2022-09-12T11:31:09.464Z,21.96
2022-09-12T11:32:48.924Z,21.98
2022-09-12T11:33:56.558Z,21.99
2022-09-12T11:35:10.416Z,22.03
2022-09-12T11:36:30.706Z,22.05
2022-09-12T11:37:53.879Z,22.03
2022-09-12T11:39:04.323Z,22.07
2022-09-12T11:40:22.434Z,22.06
2022-09-12T11:41:32.488Z,22.06
2022-09-12T11:42:39.852Z,22.06
2022-09-12T11:43:48.691Z,22.05
2022-09-12T11:44:59.636Z,22.03
2022-09-12T11:46:11.058Z,22.03
2022-09-12T11:47:17.398Z,22.02
2022-09-12T11:48:27.680Z,22.05
2022-09-12T11:49:37.646Z,22.07
2022-09-12T11:50:41.401Z,22.09
2022-09-12T11:51:50.750Z,22.10
2022-09-12T11:52:57.573Z,22.11
2022-09-12T11:54:14.962Z,22.11
2022-09-12T11:55:23.486Z,22.09
2022-09-12T11:56:27.409Z,22.12
2022-09-12T11:57:37.906Z,22.12
2022-09-12T11:58:42.235Z,22.13
2022-09-12T11:59:50.978Z,22.15
2022-09-12T12:00:57.930Z,22.14
2022-09-12T12:02:03.286Z,22.18
2022-09-12T12:03:15.608Z,22.20
2022-09-12T12:04:24.825Z,22.21
2022-09-12T12:05:31.887Z,22.24
2022-09-12T12:06:48.484Z,22.26
2022-09-12T12:08:04.211Z,22.29
2022-09-12T12:09:07.254Z,22.34
2022-09-12T12:10:24.619Z,22.37
2022-09-12T12:11:33.744Z,22.40
2022-09-12T12:12:36.452Z,22.44
2022-09-12T12:13:43.235Z,22.47
2022-09-12T12:14:48.718Z,22.50
2022-09-12T12:15:56.287Z,22.53
2022-09-12T12:16:58.361Z,22.54
2022-09-12T12:18:03.531Z,22.55
2022-09-12T12:19:10.982Z,22.56
2022-09-12T12:20:18.760Z,22.57
2022-09-12T12:21:40.123Z,22.58
2022-09-12T12:22:53.187Z,22.59
2022-09-12T12:24:13.964Z,22.59
2022-09-12T12:25:29.862Z,22.61
2022-09-12T12:26:59.756Z,22.62
2022-09-12T12:28:05.482Z,22.61
2022-09-12T12:29:09.538Z,22.60
2022-09-12T12:31:03.347Z,22.60
2022-09-12T12:32:26.605Z,22.65
2022-09-12T12:34:04.781Z,22.72
2022-09-12T12:35:39.975Z,22.76
2022-09-12T12:36:43.822Z,22.79
2022-09-12T12:37:56.007Z,22.81
2022-09-12T12:38:59.856Z,22.81
2022-09-12T12:40:10.227Z,22.85
2022-09-12T12:41:45.658Z,22.87
2022-09-12T12:43:26.843Z,22.92
2022-09-12T12:44:50.123Z,22.97
2022-09-12T12:46:12.526Z,23.01
2022-09-12T12:47:19.798Z,23.04
2022-09-12T12:48:23.174Z,23.07
2022-09-12T12:49:29.624Z,23.11
2022-09-12T12:50:32.576Z,23.15
2022-09-12T12:51:56.795Z,23.18
2022-09-12T12:53:03.820Z,23.24
2022-09-12T12:54:29.598Z,23.29
2022-09-12T12:55:49.296Z,23.32
2022-09-12T12:57:10.358Z,23.33
2022-09-12T12:58:30.619Z,23.33
2022-09-12T12:59:35.159Z,23.31
2022-09-12T13:00:40.769Z,23.28
2022-09-12T13:01:55.566Z,23.25
2022-09-12T13:03:02.902Z,23.22
2022-09-12T13:04:14.316Z,23.19
2022-09-12T13:05:20.946Z,23.15
2022-09-12T13:06:32.478Z,23.13
2022-09-12T13:07:37.967Z,23.10
2022-09-12T13:08:46.356Z,23.07
2022-09-12T13:09:54.524Z,23.07
2022-09-12T13:11:00.483Z,23.07
2022-09-12T13:12:08.504Z,23.06
2022-09-12T13:13:23.739Z,23.05
2022-09-12T13:14:48.566Z,23.06
2022-09-12T13:15:54.243Z,23.08
2022-09-12T13:17:01.135Z,23.09
2022-09-12T13:18:06.096Z,23.13
2022-09-12T13:19:18.149Z,23.14
2022-09-12T13:20:28.222Z,23.19
2022-09-12T13:21:31.422Z,23.23
2022-09-12T13:22:41.748Z,23.27
2022-09-12T13:23:46.164Z,23.31
2022-09-12T13:24:51.534Z,23.32
2022-09-12T13:25:56.294Z,23.37
2022-09-12T13:26:58.241Z,23.39
2022-09-12T13:28:16.764Z,23.38
2022-09-12T13:29:21.324Z,23.41
2022-09-12T13:30:24.302Z,23.41
2022-09-12T13:31:30.168Z,23.39
2022-09-12T13:32:33.558Z,23.37
2022-09-12T13:33:40.889Z,23.36
2022-09-12T13:35:00.064Z,23.34
2022-09-12T13:36:28.230Z,23.29
2022-09-12T13:37:49.759Z,23.30
2022-09-12T13:39:24.408Z,23.25
2022-09-12T13:40:33.236Z,23.24
2022-09-12T13:42:23.687Z,23.20
2022-09-12T13:43:36.402Z,23.17
2022-09-12T13:44:44.976Z,23.14
2022-09-12T13:45:47.584Z,23.14
2022-09-12T13:46:51.956Z,23.12
2022-09-12T13:47:58.844Z,23.10
2022-09-12T13:49:11.289Z,23.10
2022-09-12T13:50:18.172Z,23.09
2022-09-12T13:51:25.777Z,23.08
2022-09-12T13:52:30.937Z,23.04
2022-09-12T13:53:45.076Z,23.02
2022-09-12T13:54:50.098Z,22.97
2022-09-12T13:55:56.019Z,22.94
2022-09-12T13:56:59.719Z,22.91
2022-09-12T13:58:05.031Z,22.87
2022-09-12T13:59:13.349Z,22.87
2022-09-12T14:00:19.914Z,22.85
2022-09-12T14:01:23.156Z,22.85
2022-09-12T14:02:29.297Z,22.86
2022-09-12T14:03:50.866Z,22.86
2022-09-12T14:05:10.209Z,22.86
2022-09-12T14:06:12.758Z,22.84
2022-09-12T14:07:20.242Z,22.86
2022-09-12T14:08:23.958Z,22.88
2022-09-12T14:09:31.123Z,22.91
2022-09-12T14:10:35.144Z,22.91
2022-09-12T14:11:40.007Z,22.94
2022-09-12T14:12:43.502Z,22.98
2022-09-12T14:13:48.182Z,22.99
2022-09-12T14:14:52.890Z,23.03
2022-09-12T14:16:49.523Z,23.04
2022-09-12T14:17:54.806Z,23.10
2022-09-12T14:18:57.622Z,23.12
2022-09-12T14:20:04.151Z,23.14
2022-09-12T14:21:12.764Z,23.17
2022-09-12T14:22:18.003Z,23.17
2022-09-12T14:23:27.456Z,23.14
2022-09-12T14:24:31.048Z,23.15
2022-09-12T14:25:41.419Z,23.16
2022-09-12T14:26:44.950Z,23.13
2022-09-12T14:27:52.571Z,23.14
2022-09-12T14:28:54.958Z,23.14
2022-09-12T14:30:06.782Z,23.13